createdAt,value
2019-01-18T00:01:20.550Z,17.60
2019-01-18T00:06:15.968Z,17.80
2019-01-18T00:11:12.686Z,18.00
2019-01-18T00:16:09.882Z,18.20
2019-01-18T00:21:05.805Z,18.20
2019-01-18T00:26:01.505Z,18.30
2019-01-18T00:30:57.120Z,18.30
2019-01-18T00:35:52.529Z,18.40
2019-01-18T00:40:48.313Z,18.40
2019-01-18T00:45:43.728Z,18.40
2019-01-18T00:50:39.443Z,18.40
2019-01-18T00:55:34.875Z,18.30
2019-01-18T01:00:30.685Z,18.30
2019-01-18T01:05:26.605Z,18.30
2019-01-18T01:10:22.083Z,18.20
2019-01-18T01:15:18.928Z,18.20
2019-01-18T01:20:16.408Z,18.20
2019-01-18T01:25:12.174Z,18.20
2019-01-18T01:30:15.703Z,18.10
2019-01-18T01:35:11.855Z,18.10
2019-01-18T01:40:11.410Z,18.10
2019-01-18T01:45:09.693Z,18.00
2019-01-18T01:50:05.515Z,18.00
2019-01-18T01:55:02.077Z,18.00
2019-01-18T01:59:57.972Z,17.90
2019-01-18T02:04:53.581Z,17.90
2019-01-18T02:09:49.037Z,17.90
2019-01-18T02:14:44.758Z,17.90
2019-01-18T02:19:40.474Z,17.80
2019-01-18T02:24:35.958Z,17.80
2019-01-18T02:29:31.679Z,17.80
2019-01-18T02:34:27.170Z,17.80
2019-01-18T02:39:22.780Z,17.70
2019-01-18T02:44:18.946Z,17.70
2019-01-18T02:49:14.709Z,17.70
2019-01-18T02:54:10.138Z,17.60
2019-01-18T02:59:05.568Z,17.60
2019-01-18T03:04:00.990Z,17.60
2019-01-18T03:08:56.387Z,17.50
2019-01-18T03:13:51.810Z,17.50
2019-01-18T03:18:47.218Z,17.50
2019-01-18T03:23:42.632Z,17.40
2019-01-18T03:28:38.045Z,17.40
2019-01-18T03:33:33.435Z,17.40
2019-01-18T03:38:28.814Z,17.40
2019-01-18T03:43:24.225Z,17.40
2019-01-18T03:48:19.663Z,17.30
2019-01-18T03:53:15.076Z,17.30
2019-01-18T03:58:10.470Z,17.30
2019-01-18T04:03:05.879Z,17.30
2019-01-18T04:08:01.285Z,17.30
2019-01-18T04:12:56.805Z,17.30
2019-01-18T04:17:52.197Z,17.20
2019-01-18T04:22:47.680Z,17.20
2019-01-18T04:27:43.073Z,17.20
2019-01-18T04:32:38.526Z,17.20
2019-01-18T04:37:33.983Z,17.20
2019-01-18T04:42:29.448Z,17.10
2019-01-18T04:47:24.881Z,17.10
2019-01-18T04:52:20.329Z,17.10
2019-01-18T04:57:15.743Z,17.10
2019-01-18T05:02:11.219Z,17.00
2019-01-18T05:07:06.612Z,17.00
2019-01-18T05:12:02.029Z,17.00
2019-01-18T05:16:57.437Z,16.90
2019-01-18T05:21:52.833Z,16.90
2019-01-18T05:26:48.315Z,16.90
2019-01-18T05:31:43.748Z,16.80
2019-01-18T05:36:39.141Z,16.80
2019-01-18T05:41:34.532Z,16.80
2019-01-18T05:46:30.010Z,16.80
2019-01-18T05:51:25.463Z,16.70
2019-01-18T05:56:20.999Z,16.70
2019-01-18T06:01:17.233Z,16.80
2019-01-18T06:06:12.640Z,16.70
2019-01-18T06:11:08.054Z,16.70
2019-01-18T06:16:03.455Z,16.70
2019-01-18T06:20:58.907Z,16.70
2019-01-18T06:25:54.318Z,16.70
2019-01-18T06:30:49.728Z,16.70
2019-01-18T06:35:45.163Z,16.70
2019-01-18T06:40:40.726Z,16.60
2019-01-18T06:45:36.486Z,16.60
2019-01-18T06:50:31.953Z,16.70
2019-01-18T06:55:27.372Z,16.70
2019-01-18T07:00:29.280Z,16.70
2019-01-18T07:05:24.767Z,16.70
2019-01-18T07:10:20.872Z,16.70
2019-01-18T07:15:16.651Z,16.60
2019-01-18T07:20:14.650Z,16.50
2019-01-18T07:25:14.358Z,16.50
2019-01-18T07:30:15.975Z,16.50
2019-01-18T07:35:11.425Z,16.50
2019-01-18T07:40:07.655Z,16.50
2019-01-18T07:45:03.090Z,15.70
2019-01-18T07:49:58.534Z,14.10
2019-01-18T07:54:53.943Z,14.20
2019-01-18T07:59:49.461Z,14.60
2019-01-18T08:04:44.919Z,15.10
2019-01-18T08:09:40.385Z,15.50
2019-01-18T08:14:35.801Z,15.90
2019-01-18T08:19:31.292Z,16.20
2019-01-18T08:24:26.840Z,16.40
2019-01-18T08:29:22.454Z,16.70
2019-01-18T08:34:17.893Z,16.90
2019-01-18T08:39:13.405Z,17.10
2019-01-18T08:44:08.847Z,17.20
2019-01-18T08:49:04.271Z,17.40
2019-01-18T08:53:59.712Z,17.50
2019-01-18T08:58:55.159Z,17.60
2019-01-18T09:03:50.597Z,17.60
2019-01-18T09:08:46.011Z,17.70
2019-01-18T09:13:41.420Z,17.90
2019-01-18T09:18:36.839Z,18.00
2019-01-18T09:23:32.232Z,18.00
2019-01-18T09:28:27.653Z,18.10
2019-01-18T09:33:23.127Z,18.20
2019-01-18T09:38:18.773Z,18.20
2019-01-18T09:43:14.272Z,18.30
2019-01-18T09:48:11.514Z,18.30
2019-01-18T09:53:08.526Z,18.30
2019-01-18T09:58:04.010Z,18.40
2019-01-18T10:03:00.394Z,18.40
2019-01-18T10:07:55.949Z,18.40
2019-01-18T10:12:51.383Z,18.40
2019-01-18T10:17:46.821Z,18.50
2019-01-18T10:22:42.369Z,18.50
2019-01-18T10:27:37.868Z,18.50
2019-01-18T10:32:33.363Z,18.50
2019-01-18T10:37:28.794Z,18.60
2019-01-18T10:42:24.235Z,18.60
2019-01-18T10:47:20.276Z,18.60
2019-01-18T10:52:15.698Z,18.60
2019-01-18T10:57:11.173Z,18.60
2019-01-18T11:02:07.335Z,18.60
2019-01-18T11:07:03.006Z,18.70
2019-01-18T11:11:58.429Z,18.60
2019-01-18T11:16:53.811Z,18.70
2019-01-18T11:21:49.506Z,18.70
2019-01-18T11:26:44.923Z,18.70
2019-01-18T11:31:40.330Z,18.70
2019-01-18T11:36:35.770Z,18.70
2019-01-18T11:41:31.328Z,18.70
2019-01-18T11:46:26.747Z,18.70
2019-01-18T11:51:22.239Z,18.80
2019-01-18T11:56:17.662Z,18.80
2019-01-18T12:01:13.079Z,18.70
2019-01-18T12:06:08.602Z,18.80
2019-01-18T12:11:04.074Z,18.80
2019-01-18T12:15:59.519Z,18.80
2019-01-18T12:20:54.942Z,18.80
2019-01-18T12:25:50.375Z,18.80
2019-01-18T12:30:45.857Z,18.80
2019-01-18T12:35:41.347Z,18.80
2019-01-18T12:40:36.896Z,18.80
2019-01-18T12:45:32.330Z,18.80
2019-01-18T12:50:36.707Z,18.80
2019-01-18T12:55:32.119Z,18.80
2019-01-18T13:00:27.644Z,18.80
2019-01-18T13:05:29.567Z,18.80
2019-01-18T13:10:24.952Z,18.80
2019-01-18T13:15:35.001Z,18.80
2019-01-18T13:20:30.410Z,18.80
2019-01-18T13:25:25.868Z,18.80
2019-01-18T13:30:21.288Z,18.80
2019-01-18T13:35:16.806Z,18.80
2019-01-18T13:40:18.045Z,18.80
2019-01-18T13:45:13.704Z,18.80
2019-01-18T13:50:12.599Z,18.80
2019-01-18T13:55:15.712Z,18.70
2019-01-18T14:00:11.863Z,18.80
2019-01-18T14:05:08.537Z,18.70
2019-01-18T14:10:03.966Z,18.70
2019-01-18T14:14:59.425Z,18.70
2019-01-18T14:19:54.868Z,18.70
2019-01-18T14:24:50.333Z,18.70
2019-01-18T14:29:45.820Z,18.70
2019-01-18T14:34:41.262Z,18.70
2019-01-18T14:39:36.717Z,18.70
2019-01-18T14:44:32.519Z,18.70
2019-01-18T14:49:32.478Z,18.70
2019-01-18T14:54:25.803Z,18.70
2019-01-18T14:59:21.228Z,18.70
2019-01-18T15:04:17.046Z,18.70
2019-01-18T15:09:13.091Z,18.60
2019-01-18T15:14:08.617Z,18.60
2019-01-18T15:19:04.067Z,18.50
2019-01-18T15:23:59.958Z,18.50
2019-01-18T15:28:55.385Z,18.50
2019-01-18T15:33:50.783Z,18.50
2019-01-18T15:38:46.221Z,18.40
2019-01-18T15:43:41.903Z,18.40
2019-01-18T15:48:37.567Z,18.40
2019-01-18T15:53:33.041Z,18.30
2019-01-18T15:58:28.601Z,18.30
2019-01-18T16:03:24.239Z,18.30
2019-01-18T16:08:19.697Z,18.30
2019-01-18T16:13:15.425Z,18.30
2019-01-18T16:18:14.069Z,18.30
2019-01-18T16:23:11.513Z,18.20
2019-01-18T16:28:08.441Z,18.20
2019-01-18T16:33:03.939Z,18.20
2019-01-18T16:37:59.373Z,18.20
2019-01-18T16:43:30.204Z,18.20
2019-01-18T16:48:27.076Z,18.20
2019-01-18T16:53:23.359Z,18.20
2019-01-18T16:58:19.139Z,18.10
2019-01-18T17:03:14.820Z,15.50
2019-01-18T17:08:10.529Z,13.90
2019-01-18T17:13:06.403Z,15.20
2019-01-18T17:18:01.821Z,17.00
2019-01-18T17:22:57.276Z,18.90
2019-01-18T17:27:52.857Z,19.50
2019-01-18T17:32:48.590Z,20.00
2019-01-18T17:37:52.122Z,20.30
2019-01-18T17:43:33.013Z,20.40
2019-01-18T17:49:20.817Z,20.50
2019-01-18T17:55:02.509Z,20.50
2019-01-18T18:01:02.134Z,20.50
2019-01-18T18:06:48.122Z,20.50
2019-01-18T18:12:42.402Z,20.50
2019-01-18T18:18:59.191Z,20.40
2019-01-18T18:24:45.198Z,20.30
2019-01-18T18:30:42.369Z,20.30
2019-01-18T18:36:10.716Z,20.20
2019-01-18T18:42:07.476Z,20.20
2019-01-18T18:47:42.726Z,20.20
2019-01-18T18:53:25.800Z,20.10
2019-01-18T18:59:06.402Z,20.10
2019-01-18T19:04:32.394Z,20.20
2019-01-18T19:09:46.616Z,19.80
2019-01-18T19:15:22.859Z,19.60
2019-01-18T19:21:32.661Z,22.80
2019-01-18T19:23:23.294Z,21.70
2019-01-18T19:24:15.302Z,20.90
2019-01-18T19:25:09.273Z,20.70
2019-01-18T19:26:03.600Z,20.50
2019-01-18T19:26:54.712Z,20.40
2019-01-18T19:27:33.599Z,20.60
2019-01-18T19:28:50.956Z,21.30
2019-01-18T19:29:51.976Z,20.90
2019-01-18T19:30:43.534Z,20.80
2019-01-18T19:31:19.553Z,20.80
2019-01-18T19:32:16.925Z,20.80
2019-01-18T19:32:59.673Z,20.80
2019-01-18T19:39:36.190Z,20.70
2019-01-18T19:45:20.791Z,20.70
2019-01-18T19:51:23.285Z,19.90
2019-01-18T19:58:00.347Z,19.70
2019-01-18T20:03:58.766Z,19.80
2019-01-18T20:10:02.886Z,19.90
2019-01-18T20:16:21.252Z,20.00
2019-01-18T20:22:26.199Z,20.10
2019-01-18T20:28:23.669Z,20.10
2019-01-18T20:34:41.095Z,20.10
2019-01-18T20:40:22.343Z,20.10
2019-01-18T20:46:32.636Z,20.00
2019-01-18T20:52:36.803Z,20.10
2019-01-18T20:58:47.182Z,20.10
2019-01-18T21:04:48.891Z,20.10
2019-01-18T21:10:37.942Z,20.00
2019-01-18T21:16:33.722Z,20.10
2019-01-18T21:22:45.553Z,20.10
2019-01-18T21:29:13.684Z,20.10
2019-01-18T21:34:48.814Z,20.10
2019-01-18T21:40:13.402Z,20.10
2019-01-18T21:46:08.395Z,20.10
2019-01-18T21:52:18.486Z,20.10
2019-01-18T21:58:26.779Z,20.10
2019-01-18T22:04:40.117Z,20.10
2019-01-18T22:10:00.183Z,20.10
2019-01-18T22:16:03.574Z,20.10
2019-01-18T22:21:58.527Z,20.10
2019-01-18T22:28:08.744Z,20.10
2019-01-18T22:33:35.288Z,20.10
2019-01-18T22:39:35.764Z,20.10
2019-01-18T22:45:32.259Z,18.50
2019-01-18T22:51:09.751Z,16.30
2019-01-18T22:57:05.994Z,15.00
2019-01-18T23:03:11.573Z,14.60
2019-01-18T23:09:16.753Z,15.20
2019-01-18T23:15:19.011Z,15.90
2019-01-18T23:21:32.562Z,16.40
2019-01-18T23:27:26.560Z,16.70
2019-01-18T23:33:23.359Z,17.00
2019-01-18T23:39:24.128Z,17.10
2019-01-18T23:45:17.247Z,17.30
2019-01-18T23:51:16.876Z,17.30
2019-01-18T23:57:01.645Z,17.40
